sensor_id;sensor_type;location;lat;lon;timestamp;P1;durP1;ratioP1;P2;durP2;ratioP2
24613;SDS011;12760;46.296;25.290;2023-05-14T00:01:34;1.40;;;1.40;;
24613;SDS011;12760;46.296;25.290;2023-05-14T00:04:00;1.55;;;1.55;;
24613;SDS011;12760;46.296;25.290;2023-05-14T00:06:27;1.65;;;1.65;;
24613;SDS011;12760;46.296;25.290;2023-05-14T00:08:52;2.40;;;2.30;;
24613;SDS011;12760;46.296;25.290;2023-05-14T00:11:18;1.85;;;1.85;;
24613;SDS011;12760;46.296;25.290;2023-05-14T00:13:44;2.38;;;2.28;;
24613;SDS011;12760;46.296;25.290;2023-05-14T00:16:10;1.63;;;1.63;;
24613;SDS011;12760;46.296;25.290;2023-05-14T00:18:36;2.88;;;2.78;;
24613;SDS011;12760;46.296;25.290;2023-05-14T00:21:02;2.13;;;2.03;;
24613;SDS011;12760;46.296;25.290;2023-05-14T00:23:28;2.35;;;2.25;;
24613;SDS011;12760;46.296;25.290;2023-05-14T00:25:53;2.20;;;2.10;;
24613;SDS011;12760;46.296;25.290;2023-05-14T00:28:19;1.98;;;1.98;;
24613;SDS011;12760;46.296;25.290;2023-05-14T00:30:45;1.25;;;1.25;;
24613;SDS011;12760;46.296;25.290;2023-05-14T00:33:10;1.52;;;1.52;;
24613;SDS011;12760;46.296;25.290;2023-05-14T00:35:36;1.60;;;1.60;;
24613;SDS011;12760;46.296;25.290;2023-05-14T00:38:02;1.63;;;1.52;;
24613;SDS011;12760;46.296;25.290;2023-05-14T00:40:28;1.33;;;1.33;;
24613;SDS011;12760;46.296;25.290;2023-05-14T00:42:54;2.22;;;2.13;;
24613;SDS011;12760;46.296;25.290;2023-05-14T00:45:20;1.52;;;1.52;;
24613;SDS011;12760;46.296;25.290;2023-05-14T00:47:47;1.70;;;1.70;;
24613;SDS011;12760;46.296;25.290;2023-05-14T00:50:14;1.90;;;1.90;;
24613;SDS011;12760;46.296;25.290;2023-05-14T00:52:41;1.70;;;1.67;;
24613;SDS011;12760;46.296;25.290;2023-05-14T00:55:07;1.52;;;1.52;;
24613;SDS011;12760;46.296;25.290;2023-05-14T00:57:33;2.22;;;2.13;;
24613;SDS011;12760;46.296;25.290;2023-05-14T01:00:00;1.30;;;1.30;;
24613;SDS011;12760;46.296;25.290;2023-05-14T01:02:27;1.52;;;1.52;;
24613;SDS011;12760;46.296;25.290;2023-05-14T01:04:53;1.48;;;1.48;;
24613;SDS011;12760;46.296;25.290;2023-05-14T01:07:26;2.20;;;2.10;;
24613;SDS011;12760;46.296;25.290;2023-05-14T01:12:41;1.52;;;1.52;;
24613;SDS011;12760;46.296;25.290;2023-05-14T01:15:10;1.40;;;1.40;;
24613;SDS011;12760;46.296;25.290;2023-05-14T01:17:45;1.08;;;1.08;;
24613;SDS011;12760;46.296;25.290;2023-05-14T01:20:14;1.63;;;1.58;;
24613;SDS011;12760;46.296;25.290;2023-05-14T01:22:40;2.22;;;2.13;;
24613;SDS011;12760;46.296;25.290;2023-05-14T01:25:06;1.80;;;1.80;;
24613;SDS011;12760;46.296;25.290;2023-05-14T01:30:57;2.38;;;2.28;;
24613;SDS011;12760;46.296;25.290;2023-05-14T01:33:25;1.27;;;1.27;;
24613;SDS011;12760;46.296;25.290;2023-05-14T01:35:53;1.05;;;1.05;;
24613;SDS011;12760;46.296;25.290;2023-05-14T01:38:19;1.75;;;1.70;;
24613;SDS011;12760;46.296;25.290;2023-05-14T01:40:46;1.35;;;1.35;;
24613;SDS011;12760;46.296;25.290;2023-05-14T01:43:14;1.38;;;1.38;;
24613;SDS011;12760;46.296;25.290;2023-05-14T01:45:41;1.90;;;1.90;;
24613;SDS011;12760;46.296;25.290;2023-05-14T01:48:07;2.47;;;2.38;;
24613;SDS011;12760;46.296;25.290;2023-05-14T01:50:33;3.25;;;3.13;;
24613;SDS011;12760;46.296;25.290;2023-05-14T01:52:59;1.90;;;1.90;;
24613;SDS011;12760;46.296;25.290;2023-05-14T01:55:25;1.63;;;1.63;;
24613;SDS011;12760;46.296;25.290;2023-05-14T01:57:51;1.65;;;1.65;;
24613;SDS011;12760;46.296;25.290;2023-05-14T02:00:17;2.00;;;2.00;;
24613;SDS011;12760;46.296;25.290;2023-05-14T02:02:43;1.58;;;1.58;;
24613;SDS011;12760;46.296;25.290;2023-05-14T02:05:09;2.40;;;2.30;;
24613;SDS011;12760;46.296;25.290;2023-05-14T02:07:36;1.65;;;1.65;;
24613;SDS011;12760;46.296;25.290;2023-05-14T02:10:02;3.15;;;2.95;;
24613;SDS011;12760;46.296;25.290;2023-05-14T02:12:28;1.80;;;1.80;;
24613;SDS011;12760;46.296;25.290;2023-05-14T02:14:53;2.40;;;2.30;;
24613;SDS011;12760;46.296;25.290;2023-05-14T02:17:19;1.35;;;1.35;;
24613;SDS011;12760;46.296;25.290;2023-05-14T02:19:45;1.70;;;1.70;;
24613;SDS011;12760;46.296;25.290;2023-05-14T02:22:11;2.92;;;2.83;;
24613;SDS011;12760;46.296;25.290;2023-05-14T02:24:37;2.55;;;2.45;;
24613;SDS011;12760;46.296;25.290;2023-05-14T02:27:03;1.52;;;1.52;;
24613;SDS011;12760;46.296;25.290;2023-05-14T02:29:30;2.90;;;2.72;;
24613;SDS011;12760;46.296;25.290;2023-05-14T02:31:55;1.67;;;1.67;;
24613;SDS011;12760;46.296;25.290;2023-05-14T02:34:21;2.22;;;2.17;;
24613;SDS011;12760;46.296;25.290;2023-05-14T02:36:47;1.65;;;1.55;;
24613;SDS011;12760;46.296;25.290;2023-05-14T02:39:13;1.70;;;1.70;;
24613;SDS011;12760;46.296;25.290;2023-05-14T02:41:39;1.30;;;1.30;;
24613;SDS011;12760;46.296;25.290;2023-05-14T02:44:04;1.67;;;1.67;;
24613;SDS011;12760;46.296;25.290;2023-05-14T02:46:30;1.67;;;1.67;;
24613;SDS011;12760;46.296;25.290;2023-05-14T02:48:56;1.73;;;1.73;;
24613;SDS011;12760;46.296;25.290;2023-05-14T02:51:22;2.65;;;2.58;;
24613;SDS011;12760;46.296;25.290;2023-05-14T02:53:48;2.45;;;2.35;;
24613;SDS011;12760;46.296;25.290;2023-05-14T02:56:14;2.35;;;2.25;;
24613;SDS011;12760;46.296;25.290;2023-05-14T02:58:39;1.52;;;1.52;;
24613;SDS011;12760;46.296;25.290;2023-05-14T03:01:05;2.63;;;2.45;;
24613;SDS011;12760;46.296;25.290;2023-05-14T03:03:31;1.83;;;1.83;;
24613;SDS011;12760;46.296;25.290;2023-05-14T03:05:57;2.05;;;2.05;;
24613;SDS011;12760;46.296;25.290;2023-05-14T03:08:23;1.60;;;1.60;;
24613;SDS011;12760;46.296;25.290;2023-05-14T03:10:49;2.85;;;2.75;;
24613;SDS011;12760;46.296;25.290;2023-05-14T03:13:15;1.45;;;1.45;;
24613;SDS011;12760;46.296;25.290;2023-05-14T03:15:43;1.83;;;1.83;;
24613;SDS011;12760;46.296;25.290;2023-05-14T03:18:11;1.80;;;1.80;;
24613;SDS011;12760;46.296;25.290;2023-05-14T03:20:39;2.67;;;2.58;;
24613;SDS011;12760;46.296;25.290;2023-05-14T03:23:05;2.10;;;2.10;;
24613;SDS011;12760;46.296;25.290;2023-05-14T03:25:31;2.08;;;2.08;;
24613;SDS011;12760;46.296;25.290;2023-05-14T03:27:58;1.70;;;1.70;;
24613;SDS011;12760;46.296;25.290;2023-05-14T03:30:24;1.42;;;1.42;;
24613;SDS011;12760;46.296;25.290;2023-05-14T03:32:50;9.95;;;4.18;;
24613;SDS011;12760;46.296;25.290;2023-05-14T03:35:15;1.85;;;1.85;;
24613;SDS011;12760;46.296;25.290;2023-05-14T03:37:41;1.73;;;1.65;;
24613;SDS011;12760;46.296;25.290;2023-05-14T03:40:07;1.55;;;1.55;;
24613;SDS011;12760;46.296;25.290;2023-05-14T03:42:33;2.03;;;2.03;;
24613;SDS011;12760;46.296;25.290;2023-05-14T03:44:58;2.30;;;2.20;;
24613;SDS011;12760;46.296;25.290;2023-05-14T03:47:24;1.88;;;1.88;;
24613;SDS011;12760;46.296;25.290;2023-05-14T03:49:50;3.47;;;3.28;;
24613;SDS011;12760;46.296;25.290;2023-05-14T03:52:15;1.67;;;1.67;;
24613;SDS011;12760;46.296;25.290;2023-05-14T03:54:41;3.17;;;2.95;;
24613;SDS011;12760;46.296;25.290;2023-05-14T03:57:07;2.70;;;2.60;;
24613;SDS011;12760;46.296;25.290;2023-05-14T03:59:33;1.45;;;1.45;;
24613;SDS011;12760;46.296;25.290;2023-05-14T04:01:58;1.60;;;1.60;;
24613;SDS011;12760;46.296;25.290;2023-05-14T04:04:24;1.70;;;1.70;;
24613;SDS011;12760;46.296;25.290;2023-05-14T04:06:50;1.80;;;1.80;;
24613;SDS011;12760;46.296;25.290;2023-05-14T04:09:16;1.20;;;1.20;;
24613;SDS011;12760;46.296;25.290;2023-05-14T04:11:41;5.63;;;2.67;;
24613;SDS011;12760;46.296;25.290;2023-05-14T04:14:07;1.80;;;1.80;;
24613;SDS011;12760;46.296;25.290;2023-05-14T04:16:33;1.50;;;1.50;;
24613;SDS011;12760;46.296;25.290;2023-05-14T04:19:00;9.52;;;2.05;;
24613;SDS011;12760;46.296;25.290;2023-05-14T04:21:27;2.38;;;2.25;;
24613;SDS011;12760;46.296;25.290;2023-05-14T04:23:53;1.90;;;1.90;;
24613;SDS011;12760;46.296;25.290;2023-05-14T04:26:19;2.30;;;2.20;;
24613;SDS011;12760;46.296;25.290;2023-05-14T04:28:45;2.85;;;2.65;;
24613;SDS011;12760;46.296;25.290;2023-05-14T04:31:11;2.33;;;2.22;;
24613;SDS011;12760;46.296;25.290;2023-05-14T04:33:36;1.60;;;1.60;;
24613;SDS011;12760;46.296;25.290;2023-05-14T04:36:02;1.90;;;1.90;;
24613;SDS011;12760;46.296;25.290;2023-05-14T04:38:29;1.58;;;1.58;;
24613;SDS011;12760;46.296;25.290;2023-05-14T04:40:56;5.00;;;4.15;;
24613;SDS011;12760;46.296;25.290;2023-05-14T04:43:22;5.05;;;3.40;;
24613;SDS011;12760;46.296;25.290;2023-05-14T04:45:48;3.55;;;2.97;;
24613;SDS011;12760;46.296;25.290;2023-05-14T04:48:13;6.90;;;1.95;;
24613;SDS011;12760;46.296;25.290;2023-05-14T04:50:39;1.63;;;1.63;;
24613;SDS011;12760;46.296;25.290;2023-05-14T04:53:05;6.15;;;3.53;;
24613;SDS011;12760;46.296;25.290;2023-05-14T04:55:31;3.97;;;3.78;;
24613;SDS011;12760;46.296;25.290;2023-05-14T04:57:57;2.58;;;2.47;;
24613;SDS011;12760;46.296;25.290;2023-05-14T05:00:22;2.78;;;2.67;;
24613;SDS011;12760;46.296;25.290;2023-05-14T05:02:48;3.63;;;3.40;;
24613;SDS011;12760;46.296;25.290;2023-05-14T05:05:14;2.95;;;2.80;;
24613;SDS011;12760;46.296;25.290;2023-05-14T05:07:40;3.85;;;3.53;;
24613;SDS011;12760;46.296;25.290;2023-05-14T05:10:06;3.95;;;3.70;;
24613;SDS011;12760;46.296;25.290;2023-05-14T05:12:32;3.40;;;3.25;;
24613;SDS011;12760;46.296;25.290;2023-05-14T05:14:59;3.75;;;3.47;;
24613;SDS011;12760;46.296;25.290;2023-05-14T05:17:25;2.60;;;2.50;;
24613;SDS011;12760;46.296;25.290;2023-05-14T05:19:50;2.20;;;2.10;;
24613;SDS011;12760;46.296;25.290;2023-05-14T05:22:16;2.17;;;2.08;;
24613;SDS011;12760;46.296;25.290;2023-05-14T05:24:44;1.65;;;1.65;;
24613;SDS011;12760;46.296;25.290;2023-05-14T05:27:09;1.70;;;1.60;;
24613;SDS011;12760;46.296;25.290;2023-05-14T05:29:35;2.97;;;2.88;;
24613;SDS011;12760;46.296;25.290;2023-05-14T05:32:01;2.17;;;2.08;;
24613;SDS011;12760;46.296;25.290;2023-05-14T05:34:27;1.80;;;1.80;;
24613;SDS011;12760;46.296;25.290;2023-05-14T05:36:52;2.40;;;2.33;;
24613;SDS011;12760;46.296;25.290;2023-05-14T05:39:18;2.38;;;2.35;;
24613;SDS011;12760;46.296;25.290;2023-05-14T05:41:44;2.42;;;2.33;;
24613;SDS011;12760;46.296;25.290;2023-05-14T05:44:09;1.65;;;1.65;;
24613;SDS011;12760;46.296;25.290;2023-05-14T05:46:35;3.50;;;3.30;;
24613;SDS011;12760;46.296;25.290;2023-05-14T05:49:01;0.95;;;0.95;;
24613;SDS011;12760;46.296;25.290;2023-05-14T05:51:27;1.50;;;1.50;;
24613;SDS011;12760;46.296;25.290;2023-05-14T05:53:52;1.70;;;1.70;;
24613;SDS011;12760;46.296;25.290;2023-05-14T05:56:18;1.40;;;1.40;;
24613;SDS011;12760;46.296;25.290;2023-05-14T05:58:45;1.02;;;1.02;;
24613;SDS011;12760;46.296;25.290;2023-05-14T06:01:10;1.15;;;1.15;;
24613;SDS011;12760;46.296;25.290;2023-05-14T06:03:36;2.65;;;2.55;;
24613;SDS011;12760;46.296;25.290;2023-05-14T06:06:02;0.95;;;0.95;;
24613;SDS011;12760;46.296;25.290;2023-05-14T06:08:28;1.10;;;1.10;;
24613;SDS011;12760;46.296;25.290;2023-05-14T06:10:53;1.70;;;1.60;;
24613;SDS011;12760;46.296;25.290;2023-05-14T06:13:19;0.93;;;0.93;;
24613;SDS011;12760;46.296;25.290;2023-05-14T06:15:45;1.02;;;1.02;;
24613;SDS011;12760;46.296;25.290;2023-05-14T06:18:10;0.80;;;0.80;;
24613;SDS011;12760;46.296;25.290;2023-05-14T06:20:36;0.85;;;0.85;;
24613;SDS011;12760;46.296;25.290;2023-05-14T06:23:02;1.15;;;1.15;;
24613;SDS011;12760;46.296;25.290;2023-05-14T06:25:28;0.70;;;0.70;;
24613;SDS011;12760;46.296;25.290;2023-05-14T06:27:53;0.77;;;0.77;;
24613;SDS011;12760;46.296;25.290;2023-05-14T06:30:19;1.17;;;1.17;;
24613;SDS011;12760;46.296;25.290;2023-05-14T06:32:45;0.80;;;0.80;;
24613;SDS011;12760;46.296;25.290;2023-05-14T06:35:11;1.25;;;1.02;;
24613;SDS011;12760;46.296;25.290;2023-05-14T06:37:36;13.52;;;1.13;;
24613;SDS011;12760;46.296;25.290;2023-05-14T06:40:02;0.93;;;0.93;;
24613;SDS011;12760;46.296;25.290;2023-05-14T06:42:29;0.82;;;0.82;;
24613;SDS011;12760;46.296;25.290;2023-05-14T06:44:54;0.82;;;0.82;;
24613;SDS011;12760;46.296;25.290;2023-05-14T06:47:20;0.50;;;0.50;;
24613;SDS011;12760;46.296;25.290;2023-05-14T06:49:46;1.23;;;1.15;;
24613;SDS011;12760;46.296;25.290;2023-05-14T06:52:11;0.70;;;0.60;;
24613;SDS011;12760;46.296;25.290;2023-05-14T06:54:37;1.08;;;1.08;;
24613;SDS011;12760;46.296;25.290;2023-05-14T06:57:03;0.93;;;0.93;;
24613;SDS011;12760;46.296;25.290;2023-05-14T06:59:29;0.57;;;0.57;;
24613;SDS011;12760;46.296;25.290;2023-05-14T07:01:55;0.57;;;0.57;;
24613;SDS011;12760;46.296;25.290;2023-05-14T07:04:20;0.65;;;0.65;;
24613;SDS011;12760;46.296;25.290;2023-05-14T07:06:46;1.52;;;1.42;;
24613;SDS011;12760;46.296;25.290;2023-05-14T07:09:12;0.60;;;0.60;;
24613;SDS011;12760;46.296;25.290;2023-05-14T07:11:38;0.60;;;0.60;;
24613;SDS011;12760;46.296;25.290;2023-05-14T07:14:04;0.68;;;0.68;;
24613;SDS011;12760;46.296;25.290;2023-05-14T07:16:29;6.32;;;1.50;;
24613;SDS011;12760;46.296;25.290;2023-05-14T07:18:55;0.50;;;0.50;;
24613;SDS011;12760;46.296;25.290;2023-05-14T07:21:21;0.45;;;0.45;;
24613;SDS011;12760;46.296;25.290;2023-05-14T07:23:46;0.60;;;0.60;;
24613;SDS011;12760;46.296;25.290;2023-05-14T07:26:12;0.57;;;0.57;;
24613;SDS011;12760;46.296;25.290;2023-05-14T07:28:38;0.50;;;0.50;;
24613;SDS011;12760;46.296;25.290;2023-05-14T07:31:04;3.72;;;1.27;;
24613;SDS011;12760;46.296;25.290;2023-05-14T07:33:32;0.82;;;0.82;;
24613;SDS011;12760;46.296;25.290;2023-05-14T07:35:59;2.30;;;2.20;;
24613;SDS011;12760;46.296;25.290;2023-05-14T07:38:25;0.30;;;0.30;;
24613;SDS011;12760;46.296;25.290;2023-05-14T07:40:51;0.35;;;0.35;;
24613;SDS011;12760;46.296;25.290;2023-05-14T07:43:17;0.40;;;0.40;;
24613;SDS011;12760;46.296;25.290;2023-05-14T07:45:42;0.70;;;0.70;;
24613;SDS011;12760;46.296;25.290;2023-05-14T07:48:08;0.65;;;0.65;;
24613;SDS011;12760;46.296;25.290;2023-05-14T07:50:35;0.47;;;0.40;;
24613;SDS011;12760;46.296;25.290;2023-05-14T07:53:02;0.40;;;0.40;;
24613;SDS011;12760;46.296;25.290;2023-05-14T07:55:27;2.38;;;1.70;;
24613;SDS011;12760;46.296;25.290;2023-05-14T07:57:53;1.55;;;1.38;;
24613;SDS011;12760;46.296;25.290;2023-05-14T08:00:19;1.92;;;1.83;;
24613;SDS011;12760;46.296;25.290;2023-05-14T08:02:45;0.45;;;0.45;;
24613;SDS011;12760;46.296;25.290;2023-05-14T08:05:12;0.40;;;0.40;;
24613;SDS011;12760;46.296;25.290;2023-05-14T08:07:38;2.25;;;0.55;;
24613;SDS011;12760;46.296;25.290;2023-05-14T08:10:04;0.60;;;0.60;;
24613;SDS011;12760;46.296;25.290;2023-05-14T08:12:31;0.20;;;0.20;;
24613;SDS011;12760;46.296;25.290;2023-05-14T08:14:57;0.32;;;0.32;;
24613;SDS011;12760;46.296;25.290;2023-05-14T08:17:23;0.98;;;0.98;;
24613;SDS011;12760;46.296;25.290;2023-05-14T08:19:48;0.35;;;0.35;;
24613;SDS011;12760;46.296;25.290;2023-05-14T08:22:14;0.20;;;0.20;;
24613;SDS011;12760;46.296;25.290;2023-05-14T08:24:40;0.60;;;0.60;;
24613;SDS011;12760;46.296;25.290;2023-05-14T08:27:07;0.65;;;0.50;;
24613;SDS011;12760;46.296;25.290;2023-05-14T08:29:33;0.30;;;0.30;;
24613;SDS011;12760;46.296;25.290;2023-05-14T08:31:59;0.40;;;0.40;;
24613;SDS011;12760;46.296;25.290;2023-05-14T08:34:24;0.30;;;0.30;;
24613;SDS011;12760;46.296;25.290;2023-05-14T08:36:50;0.20;;;0.20;;
24613;SDS011;12760;46.296;25.290;2023-05-14T08:39:16;0.30;;;0.30;;
24613;SDS011;12760;46.296;25.290;2023-05-14T08:41:41;0.40;;;0.40;;
24613;SDS011;12760;46.296;25.290;2023-05-14T08:44:12;0.30;;;0.30;;
24613;SDS011;12760;46.296;25.290;2023-05-14T08:46:39;0.50;;;0.50;;
24613;SDS011;12760;46.296;25.290;2023-05-14T08:51:51;1.40;;;1.17;;
24613;SDS011;12760;46.296;25.290;2023-05-14T08:54:17;0.77;;;0.77;;
24613;SDS011;12760;46.296;25.290;2023-05-14T08:56:44;0.43;;;0.43;;
24613;SDS011;12760;46.296;25.290;2023-05-14T08:59:12;5.95;;;2.83;;
24613;SDS011;12760;46.296;25.290;2023-05-14T09:01:40;0.30;;;0.30;;
24613;SDS011;12760;46.296;25.290;2023-05-14T09:04:11;0.28;;;0.28;;
24613;SDS011;12760;46.296;25.290;2023-05-14T09:06:39;2.05;;;1.92;;
24613;SDS011;12760;46.296;25.290;2023-05-14T09:09:07;0.30;;;0.30;;
24613;SDS011;12760;46.296;25.290;2023-05-14T09:11:39;1.75;;;0.63;;
24613;SDS011;12760;46.296;25.290;2023-05-14T09:14:06;0.47;;;0.47;;
24613;SDS011;12760;46.296;25.290;2023-05-14T09:16:32;0.20;;;0.20;;
24613;SDS011;12760;46.296;25.290;2023-05-14T09:19:00;0.30;;;0.30;;
24613;SDS011;12760;46.296;25.290;2023-05-14T09:21:27;0.20;;;0.20;;
24613;SDS011;12760;46.296;25.290;2023-05-14T09:23:53;0.20;;;0.20;;
24613;SDS011;12760;46.296;25.290;2023-05-14T09:26:22;0.20;;;0.20;;
24613;SDS011;12760;46.296;25.290;2023-05-14T09:28:52;7.57;;;0.77;;
24613;SDS011;12760;46.296;25.290;2023-05-14T09:31:20;0.40;;;0.40;;
24613;SDS011;12760;46.296;25.290;2023-05-14T09:33:49;0.20;;;0.20;;
24613;SDS011;12760;46.296;25.290;2023-05-14T09:36:15;0.40;;;0.40;;
24613;SDS011;12760;46.296;25.290;2023-05-14T09:38:42;0.40;;;0.40;;
24613;SDS011;12760;46.296;25.290;2023-05-14T09:41:08;0.30;;;0.30;;
24613;SDS011;12760;46.296;25.290;2023-05-14T09:43:34;0.30;;;0.30;;
24613;SDS011;12760;46.296;25.290;2023-05-14T09:46:00;0.30;;;0.30;;
24613;SDS011;12760;46.296;25.290;2023-05-14T09:48:25;0.30;;;0.30;;
24613;SDS011;12760;46.296;25.290;2023-05-14T09:50:51;0.52;;;0.52;;
24613;SDS011;12760;46.296;25.290;2023-05-14T09:53:17;0.30;;;0.30;;
24613;SDS011;12760;46.296;25.290;2023-05-14T09:55:43;0.50;;;0.50;;
24613;SDS011;12760;46.296;25.290;2023-05-14T09:58:09;0.20;;;0.20;;
24613;SDS011;12760;46.296;25.290;2023-05-14T10:00:36;0.98;;;0.98;;
24613;SDS011;12760;46.296;25.290;2023-05-14T10:03:06;0.20;;;0.20;;
24613;SDS011;12760;46.296;25.290;2023-05-14T10:05:34;0.20;;;0.20;;
24613;SDS011;12760;46.296;25.290;2023-05-14T10:08:17;0.52;;;0.52;;
24613;SDS011;12760;46.296;25.290;2023-05-14T10:10:49;0.30;;;0.30;;
24613;SDS011;12760;46.296;25.290;2023-05-14T10:13:19;0.17;;;0.17;;
24613;SDS011;12760;46.296;25.290;2023-05-14T10:15:50;1.65;;;0.63;;
24613;SDS011;12760;46.296;25.290;2023-05-14T10:18:22;0.50;;;0.50;;
24613;SDS011;12760;46.296;25.290;2023-05-14T10:20:55;0.75;;;0.75;;
24613;SDS011;12760;46.296;25.290;2023-05-14T10:23:40;1.77;;;0.90;;
24613;SDS011;12760;46.296;25.290;2023-05-14T10:26:07;0.30;;;0.30;;
24613;SDS011;12760;46.296;25.290;2023-05-14T10:28:34;0.20;;;0.20;;
24613;SDS011;12760;46.296;25.290;2023-05-14T10:31:00;0.40;;;0.40;;
24613;SDS011;12760;46.296;25.290;2023-05-14T10:33:26;0.30;;;0.30;;
24613;SDS011;12760;46.296;25.290;2023-05-14T10:36:00;0.45;;;0.45;;
24613;SDS011;12760;46.296;25.290;2023-05-14T10:38:35;4.32;;;1.08;;
24613;SDS011;12760;46.296;25.290;2023-05-14T10:41:05;0.20;;;0.20;;
24613;SDS011;12760;46.296;25.290;2023-05-14T10:43:36;0.30;;;0.30;;
24613;SDS011;12760;46.296;25.290;2023-05-14T10:46:03;0.17;;;0.17;;
24613;SDS011;12760;46.296;25.290;2023-05-14T10:48:30;4.78;;;0.65;;
24613;SDS011;12760;46.296;25.290;2023-05-14T10:50:57;0.60;;;0.60;;
24613;SDS011;12760;46.296;25.290;2023-05-14T10:53:37;0.38;;;0.38;;
24613;SDS011;12760;46.296;25.290;2023-05-14T10:56:05;4.90;;;0.90;;
24613;SDS011;12760;46.296;25.290;2023-05-14T10:58:36;0.20;;;0.20;;
24613;SDS011;12760;46.296;25.290;2023-05-14T11:01:02;0.45;;;0.45;;
24613;SDS011;12760;46.296;25.290;2023-05-14T11:03:30;0.40;;;0.40;;
24613;SDS011;12760;46.296;25.290;2023-05-14T11:05:56;0.55;;;0.52;;
24613;SDS011;12760;46.296;25.290;2023-05-14T11:08:25;0.30;;;0.30;;
24613;SDS011;12760;46.296;25.290;2023-05-14T11:10:53;0.20;;;0.20;;
24613;SDS011;12760;46.296;25.290;2023-05-14T11:13:19;5.32;;;1.58;;
24613;SDS011;12760;46.296;25.290;2023-05-14T11:15:45;0.77;;;0.77;;
24613;SDS011;12760;46.296;25.290;2023-05-14T11:18:12;0.38;;;0.38;;
24613;SDS011;12760;46.296;25.290;2023-05-14T11:20:50;0.40;;;0.40;;
24613;SDS011;12760;46.296;25.290;2023-05-14T11:23:16;0.50;;;0.50;;
24613;SDS011;12760;46.296;25.290;2023-05-14T11:25:42;0.20;;;0.20;;
24613;SDS011;12760;46.296;25.290;2023-05-14T11:28:08;0.35;;;0.35;;
24613;SDS011;12760;46.296;25.290;2023-05-14T11:30:33;0.20;;;0.20;;
24613;SDS011;12760;46.296;25.290;2023-05-14T11:32:59;0.95;;;0.95;;
24613;SDS011;12760;46.296;25.290;2023-05-14T11:35:25;0.52;;;0.52;;
24613;SDS011;12760;46.296;25.290;2023-05-14T11:37:51;0.50;;;0.50;;
24613;SDS011;12760;46.296;25.290;2023-05-14T11:40:17;0.20;;;0.20;;
24613;SDS011;12760;46.296;25.290;2023-05-14T11:42:43;0.20;;;0.20;;
24613;SDS011;12760;46.296;25.290;2023-05-14T11:45:12;0.65;;;0.52;;
24613;SDS011;12760;46.296;25.290;2023-05-14T11:47:39;0.45;;;0.45;;
24613;SDS011;12760;46.296;25.290;2023-05-14T11:50:06;0.20;;;0.20;;
24613;SDS011;12760;46.296;25.290;2023-05-14T11:52:36;0.35;;;0.35;;
24613;SDS011;12760;46.296;25.290;2023-05-14T11:55:03;0.85;;;0.85;;
24613;SDS011;12760;46.296;25.290;2023-05-14T11:57:29;0.20;;;0.20;;
24613;SDS011;12760;46.296;25.290;2023-05-14T11:59:55;0.20;;;0.20;;
24613;SDS011;12760;46.296;25.290;2023-05-14T12:02:21;0.30;;;0.30;;
24613;SDS011;12760;46.296;25.290;2023-05-14T12:04:50;4.10;;;0.55;;
24613;SDS011;12760;46.296;25.290;2023-05-14T12:07:17;0.28;;;0.28;;
24613;SDS011;12760;46.296;25.290;2023-05-14T12:09:44;0.75;;;0.45;;
24613;SDS011;12760;46.296;25.290;2023-05-14T12:12:16;0.20;;;0.20;;
24613;SDS011;12760;46.296;25.290;2023-05-14T12:14:43;0.20;;;0.20;;
24613;SDS011;12760;46.296;25.290;2023-05-14T12:17:16;2.65;;;1.10;;
24613;SDS011;12760;46.296;25.290;2023-05-14T12:19:44;0.20;;;0.20;;
24613;SDS011;12760;46.296;25.290;2023-05-14T12:22:13;0.20;;;0.20;;
24613;SDS011;12760;46.296;25.290;2023-05-14T12:24:40;3.10;;;1.15;;
24613;SDS011;12760;46.296;25.290;2023-05-14T12:27:08;0.73;;;0.63;;
24613;SDS011;12760;46.296;25.290;2023-05-14T12:29:34;0.38;;;0.38;;
24613;SDS011;12760;46.296;25.290;2023-05-14T12:32:02;0.30;;;0.30;;
24613;SDS011;12760;46.296;25.290;2023-05-14T12:34:33;0.50;;;0.50;;
24613;SDS011;12760;46.296;25.290;2023-05-14T12:37:02;0.20;;;0.20;;
24613;SDS011;12760;46.296;25.290;2023-05-14T12:39:32;0.28;;;0.28;;
24613;SDS011;12760;46.296;25.290;2023-05-14T12:41:58;0.75;;;0.70;;
24613;SDS011;12760;46.296;25.290;2023-05-14T12:44:24;0.25;;;0.25;;
24613;SDS011;12760;46.296;25.290;2023-05-14T12:46:50;0.40;;;0.40;;
24613;SDS011;12760;46.296;25.290;2023-05-14T12:49:16;1.52;;;1.25;;
24613;SDS011;12760;46.296;25.290;2023-05-14T12:51:41;0.40;;;0.40;;
24613;SDS011;12760;46.296;25.290;2023-05-14T12:54:07;0.20;;;0.20;;
24613;SDS011;12760;46.296;25.290;2023-05-14T12:56:35;0.22;;;0.22;;
24613;SDS011;12760;46.296;25.290;2023-05-14T12:59:02;1.33;;;1.17;;
24613;SDS011;12760;46.296;25.290;2023-05-14T13:01:28;2.00;;;1.60;;
24613;SDS011;12760;46.296;25.290;2023-05-14T13:03:54;0.20;;;0.20;;
24613;SDS011;12760;46.296;25.290;2023-05-14T13:06:20;0.15;;;0.15;;
24613;SDS011;12760;46.296;25.290;2023-05-14T13:08:46;0.20;;;0.20;;
24613;SDS011;12760;46.296;25.290;2023-05-14T13:11:12;0.20;;;0.20;;
24613;SDS011;12760;46.296;25.290;2023-05-14T13:13:37;0.40;;;0.40;;
24613;SDS011;12760;46.296;25.290;2023-05-14T13:16:03;0.30;;;0.30;;
24613;SDS011;12760;46.296;25.290;2023-05-14T13:18:29;0.75;;;0.75;;
24613;SDS011;12760;46.296;25.290;2023-05-14T13:20:55;4.43;;;2.15;;
24613;SDS011;12760;46.296;25.290;2023-05-14T13:23:20;0.28;;;0.28;;
24613;SDS011;12760;46.296;25.290;2023-05-14T13:25:46;0.20;;;0.20;;
24613;SDS011;12760;46.296;25.290;2023-05-14T13:28:12;0.52;;;0.52;;
24613;SDS011;12760;46.296;25.290;2023-05-14T13:30:37;0.93;;;0.93;;
24613;SDS011;12760;46.296;25.290;2023-05-14T13:33:03;0.30;;;0.30;;
24613;SDS011;12760;46.296;25.290;2023-05-14T13:35:29;0.30;;;0.30;;
24613;SDS011;12760;46.296;25.290;2023-05-14T13:37:55;0.30;;;0.30;;
24613;SDS011;12760;46.296;25.290;2023-05-14T13:40:21;0.35;;;0.35;;
24613;SDS011;12760;46.296;25.290;2023-05-14T13:42:46;0.45;;;0.45;;
24613;SDS011;12760;46.296;25.290;2023-05-14T13:45:12;0.40;;;0.40;;
24613;SDS011;12760;46.296;25.290;2023-05-14T13:47:38;0.55;;;0.50;;
24613;SDS011;12760;46.296;25.290;2023-05-14T13:50:04;0.77;;;0.77;;
24613;SDS011;12760;46.296;25.290;2023-05-14T13:52:30;0.30;;;0.30;;
24613;SDS011;12760;46.296;25.290;2023-05-14T13:54:55;1.42;;;0.63;;
24613;SDS011;12760;46.296;25.290;2023-05-14T13:57:21;0.40;;;0.40;;
24613;SDS011;12760;46.296;25.290;2023-05-14T13:59:47;0.85;;;0.85;;
24613;SDS011;12760;46.296;25.290;2023-05-14T14:02:13;0.40;;;0.40;;
24613;SDS011;12760;46.296;25.290;2023-05-14T14:04:39;0.73;;;0.73;;
24613;SDS011;12760;46.296;25.290;2023-05-14T14:07:05;0.30;;;0.30;;
24613;SDS011;12760;46.296;25.290;2023-05-14T14:09:30;0.57;;;0.50;;
24613;SDS011;12760;46.296;25.290;2023-05-14T14:12:03;0.35;;;0.35;;
24613;SDS011;12760;46.296;25.290;2023-05-14T14:14:30;0.40;;;0.40;;
24613;SDS011;12760;46.296;25.290;2023-05-14T14:16:55;0.40;;;0.40;;
24613;SDS011;12760;46.296;25.290;2023-05-14T14:19:21;0.20;;;0.20;;
24613;SDS011;12760;46.296;25.290;2023-05-14T14:21:47;0.22;;;0.22;;
24613;SDS011;12760;46.296;25.290;2023-05-14T14:24:13;0.68;;;0.55;;
24613;SDS011;12760;46.296;25.290;2023-05-14T14:26:38;0.30;;;0.30;;
24613;SDS011;12760;46.296;25.290;2023-05-14T14:29:04;0.63;;;0.63;;
24613;SDS011;12760;46.296;25.290;2023-05-14T14:31:30;0.20;;;0.20;;
24613;SDS011;12760;46.296;25.290;2023-05-14T14:33:55;0.80;;;0.80;;
24613;SDS011;12760;46.296;25.290;2023-05-14T14:36:21;0.40;;;0.40;;
24613;SDS011;12760;46.296;25.290;2023-05-14T14:38:47;0.30;;;0.30;;